Time;durP1;ratioP1;P1;durP2;ratioP2;P2;SDS_P1;SDS_P2;PMS_P1;PMS_P2;Temp;Humidity;BMP_temperature;BMP_pressure;BME280_temperature;BME280_humidity;BME280_pressure;Samples;Min_cycle;Max_cycle;Signal;HPM_P1;HPM_P2
2022/08/17 00:03:13;;;;;;;11.38;1.70;;;;;;;-144.43;100.00;67396.00;5094837;28;20113;-61
2022/08/17 00:06:49;;;;;;;4.25;1.40;;;;;;;-144.43;100.00;67396.00;5078629;28;20086;-61
2022/08/17 00:10:15;;;;;;;3.95;1.50;;;;;;;-144.43;100.00;67396.00;5079456;28;20501;-62
2022/08/17 00:13:46;;;;;;;4.03;1.70;;;;;;;-144.43;100.00;67396.00;5095048;28;20111;-60
2022/08/17 00:17:14;;;;;;;17.88;2.00;;;;;;;-144.43;100.00;67396.00;5086153;28;20509;-60
2022/08/17 00:20:40;;;;;;;8.68;2.78;;;;;;;-144.43;100.00;67396.00;5094713;28;20039;-60
2022/08/17 00:24:10;;;;;;;4.97;1.40;;;;;;;-144.43;100.00;67396.00;5093341;28;20434;-60
2022/08/17 00:27:35;;;;;;;8.90;2.83;;;;;;;-144.43;100.00;67396.00;5084930;28;20036;-59
2022/08/17 00:31:04;;;;;;;6.45;1.40;;;;;;;-144.43;100.00;67396.00;5080996;28;20024;-61
2022/08/17 00:34:30;;;;;;;11.60;1.40;;;;;;;-144.43;100.00;67396.00;5080898;28;20032;-59
2022/08/17 00:37:55;;;;;;;5.97;2.08;;;;;;;-144.43;100.00;67396.00;5081156;28;20131;-60
2022/08/17 00:41:23;;;;;;;6.35;1.30;;;;;;;-144.43;100.00;67396.00;5084686;28;20398;-60
2022/08/17 00:44:59;;;;;;;7.78;2.42;;;;;;;-144.43;100.00;67396.00;5083904;28;20043;-61
2022/08/17 00:48:24;;;;;;;4.68;1.10;;;;;;;-144.43;100.00;67396.00;5083222;28;20528;-61
2022/08/17 00:52:20;;;;;;;3.95;1.05;;;;;;;-144.43;100.00;67396.00;5091251;28;20047;-59
2022/08/17 00:55:47;;;;;;;6.63;1.20;;;;;;;-144.43;100.00;67396.00;5082349;28;20124;-60
2022/08/17 00:59:16;;;;;;;5.15;1.10;;;;;;;-144.43;100.00;67396.00;5091172;28;20041;-60
2022/08/17 01:02:43;;;;;;;4.85;1.13;;;;;;;-144.43;100.00;67396.00;5083037;28;20040;-61
2022/08/17 01:06:14;;;;;;;4.30;1.27;;;;;;;-144.43;100.00;67396.00;5083439;28;20043;-61
2022/08/17 01:09:41;;;;;;;16.10;2.17;;;;;;;-144.43;100.00;67396.00;5078892;28;20080;-61
2022/08/17 01:13:07;;;;;;;10.35;1.90;;;;;;;-144.43;100.00;67396.00;5074978;28;20394;-60
2022/08/17 01:16:37;;;;;;;10.23;2.10;;;;;;;-144.43;100.00;67396.00;5077472;28;20462;-59
2022/08/17 01:20:05;;;;;;;10.55;2.00;;;;;;;-144.43;100.00;67396.00;5081274;28;20047;-60
2022/08/17 01:23:31;;;;;;;9.98;1.88;;;;;;;-144.43;100.00;67396.00;5082218;28;20029;-62
2022/08/17 01:26:59;;;;;;;8.90;1.67;;;;;;;-144.43;100.00;67396.00;5076149;28;20035;-62
2022/08/17 01:30:25;;;;;;;7.45;2.28;;;;;;;-144.43;100.00;67396.00;5077400;28;20402;-62
2022/08/17 01:33:50;;;;;;;6.70;1.35;;;;;;;-144.43;100.00;67396.00;5078790;28;20036;-58
2022/08/17 01:37:17;;;;;;;9.38;2.15;;;;;;;-144.43;100.00;67396.00;5090865;28;20117;-61
2022/08/17 01:40:51;;;;;;;7.45;2.28;;;;;;;-144.43;100.00;67396.00;5090870;28;20027;-62
2022/08/17 01:44:19;;;;;;;9.35;3.40;;;;;;;-144.43;100.00;67396.00;5088008;28;20070;-62
2022/08/17 01:47:45;;;;;;;9.50;3.00;;;;;;;-144.43;100.00;67396.00;5087286;28;20035;-60
2022/08/17 01:51:14;;;;;;;10.50;2.63;;;;;;;-144.43;100.00;67396.00;5087418;28;20028;-60
2022/08/17 01:54:42;;;;;;;11.93;2.20;;;;;;;-144.43;100.00;67396.00;5087770;28;20036;-61
2022/08/17 01:58:08;;;;;;;15.43;2.05;;;;;;;-144.43;100.00;67396.00;5080094;28;20039;-58
2022/08/17 02:01:35;;;;;;;10.95;1.73;;;;;;;-144.43;100.00;67396.00;5078724;28;20036;-59
2022/08/17 02:05:05;;;;;;;6.75;1.63;;;;;;;-144.43;100.00;67396.00;5080572;28;20037;-60
2022/08/17 02:08:34;;;;;;;14.57;1.80;;;;;;;-144.43;100.00;67396.00;5083473;28;20036;-60
2022/08/17 02:12:02;;;;;;;12.07;1.67;;;;;;;-144.43;100.00;67396.00;5078255;28;20032;-61
2022/08/17 02:15:31;;;;;;;11.88;2.05;;;;;;;-144.43;100.00;67396.00;5077666;28;20036;-60
2022/08/17 02:18:56;;;;;;;9.15;2.00;;;;;;;-144.43;100.00;67396.00;5081436;28;20048;-60
2022/08/17 02:22:24;;;;;;;10.15;1.90;;;;;;;-144.43;100.00;67396.00;5075886;28;20032;-61
2022/08/17 02:25:50;;;;;;;10.13;1.98;;;;;;;-144.43;100.00;67396.00;5081338;28;20037;-60
2022/08/17 02:29:16;;;;;;;13.40;2.20;;;;;;;-144.43;100.00;67396.00;5071169;28;20063;-62
2022/08/17 02:32:42;;;;;;;17.48;2.55;;;;;;;-144.43;100.00;67396.00;5079058;28;20031;-59
2022/08/17 02:36:08;;;;;;;9.30;2.13;;;;;;;-144.43;100.00;67396.00;5081629;28;20044;-61
2022/08/17 02:39:35;;;;;;;13.10;2.35;;;;;;;-144.43;100.00;67396.00;5080193;28;20047;-62
2022/08/17 02:43:01;;;;;;;6.55;1.60;;;;;;;-144.43;100.00;67396.00;5085020;28;20036;-61
2022/08/17 02:46:27;;;;;;;10.05;1.90;;;;;;;-144.43;100.00;67396.00;5084073;28;20028;-62
2022/08/17 02:49:53;;;;;;;7.35;2.25;;;;;;;-144.43;100.00;67396.00;5090636;28;20047;-62
2022/08/17 02:53:19;;;;;;;16.10;2.38;;;;;;;-144.43;100.00;67396.00;5089273;28;20036;-62
2022/08/17 02:56:44;;;;;;;9.77;2.13;;;;;;;-144.43;100.00;67396.00;5084835;28;20032;-60
2022/08/17 03:00:11;;;;;;;11.98;2.83;;;;;;;-144.43;100.00;67396.00;5080788;28;20031;-61
2022/08/17 03:03:38;;;;;;;9.00;2.13;;;;;;;-144.43;100.00;67396.00;5098890;28;20641;-62
2022/08/17 03:07:05;;;;;;;11.85;2.08;;;;;;;-144.43;100.00;67396.00;5084027;28;20039;-59
2022/08/17 03:10:30;;;;;;;8.00;1.85;;;;;;;-144.43;100.00;67396.00;5087609;28;20486;-61
2022/08/17 03:13:55;;;;;;;;;;;;;;;-144.43;100.00;67396.00;5083035;28;20048;-60
2022/08/17 03:17:20;;;;;;;13.48;2.90;;;;;;;-144.43;100.00;67396.00;5085790;28;19916;-61
2022/08/17 03:20:46;;;;;;;7.55;2.40;;;;;;;-144.43;100.00;67396.00;5083701;28;20028;-59
2022/08/17 03:24:11;;;;;;;12.82;2.83;;;;;;;-144.43;100.00;67396.00;5085808;28;20041;-60
2022/08/17 03:27:37;;;;;;;12.13;2.70;;;;;;;-144.43;100.00;67396.00;5088365;28;20040;-59
2022/08/17 03:31:04;;;;;;;10.52;3.05;;;;;;;-144.43;100.00;67396.00;5089108;28;20032;-59
2022/08/17 03:34:30;;;;;;;12.25;3.30;;;;;;;-144.43;100.00;67396.00;5088339;28;20061;-60
2022/08/17 03:37:56;;;;;;;7.28;2.20;;;;;;;-144.43;100.00;67396.00;5090827;28;20062;-58
2022/08/17 03:41:21;;;;;;;;;;;;;;;-144.43;100.00;67396.00;5090302;28;20040;-60
2022/08/17 03:44:52;;;;;;;7.07;1.77;;;;;;;-144.43;100.00;67396.00;5088281;28;20286;-60
2022/08/17 03:59:28;;;;;;;9.13;1.92;;;;;;;-144.43;100.00;67396.00;5094306;28;20508;-60
2022/08/17 04:02:53;;;;;;;;;;;;;;;-144.43;100.00;67396.00;5092435;28;20046;-59
2022/08/17 04:06:19;;;;;;;10.20;2.22;;;;;;;-144.43;100.00;67396.00;5094655;28;20608;-60
2022/08/17 04:09:44;;;;;;;12.82;1.90;;;;;;;-144.43;100.00;67396.00;5094574;28;20040;-60
2022/08/17 04:13:12;;;;;;;9.10;2.45;;;;;;;-144.43;100.00;67396.00;5094380;28;20245;-58
2022/08/17 04:16:38;;;;;;;8.32;2.10;;;;;;;-144.43;100.00;67396.00;5092929;28;20435;-61
2022/08/17 04:20:05;;;;;;;;;;;;;;;-144.43;100.00;67396.00;5095075;28;20108;-61
2022/08/17 04:23:32;;;;;;;9.38;1.50;;;;;;;-144.43;100.00;67396.00;5094398;28;20389;-63
2022/08/17 04:26:57;;;;;;;11.43;1.80;;;;;;;-144.43;100.00;67396.00;5094487;28;20402;-60
2022/08/17 04:30:23;;;;;;;9.82;1.70;;;;;;;-144.43;100.00;67396.00;5075824;28;20044;-63
2022/08/17 04:33:55;;;;;;;6.13;1.63;;;;;;;-144.43;100.00;67396.00;5090127;28;20040;-61
2022/08/17 04:37:20;;;;;;;7.57;1.88;;;;;;;-144.43;100.00;67396.00;5094449;28;20036;-61
2022/08/17 04:44:30;;;;;;;6.22;2.00;;;;;;;-144.43;100.00;67396.00;5091650;28;20043;-60
2022/08/17 04:47:55;;;;;;;;;;;;;;;-144.43;100.00;67396.00;5094349;28;20539;-62
2022/08/17 04:51:28;;;;;;;10.27;2.15;;;;;;;-144.43;100.00;67396.00;5094023;28;19916;-62
2022/08/17 04:54:55;;;;;;;8.52;1.85;;;;;;;-144.43;100.00;67396.00;5077887;28;20596;-62
2022/08/17 04:58:21;;;;;;;8.02;2.17;;;;;;;-144.43;100.00;67396.00;5092876;28;20051;-61
2022/08/17 05:01:47;;;;;;;9.93;2.40;;;;;;;-144.43;100.00;67396.00;5091898;28;20032;-61
2022/08/17 05:05:21;;;;;;;19.30;2.60;;;;;;;-144.43;100.00;67396.00;5091044;28;20040;-61
2022/08/17 05:08:49;;;;;;;12.65;2.50;;;;;;;-144.43;100.00;67396.00;5090754;28;20081;-62
2022/08/17 05:12:15;;;;;;;14.45;3.67;;;;;;;-144.43;100.00;67396.00;5091177;28;20040;-60
2022/08/17 05:15:41;;;;;;;;;;;;;;;-144.43;100.00;67396.00;5090939;28;20729;-61
2022/08/17 05:19:06;;;;;;;7.75;2.30;;;;;;;-144.43;100.00;67396.00;5091173;28;19916;-62
2022/08/17 05:22:31;;;;;;;9.05;2.13;;;;;;;-144.43;100.00;67396.00;5092017;28;20039;-61
2022/08/17 05:25:57;;;;;;;7.50;2.30;;;;;;;-144.43;100.00;67396.00;5089069;28;20100;-63
2022/08/17 05:29:23;;;;;;;5.45;2.17;;;;;;;-144.43;100.00;67396.00;5091431;28;20043;-59
2022/08/17 05:32:53;;;;;;;8.93;1.63;;;;;;;-144.43;100.00;67396.00;5091058;28;20413;-63
2022/08/17 05:36:18;;;;;;;6.22;2.13;;;;;;;-144.43;100.00;67396.00;5091019;28;20046;-58
2022/08/17 05:39:43;;;;;;;12.07;5.63;;;;;;;-144.43;100.00;67396.00;5090072;28;20118;-61
2022/08/17 05:43:10;;;;;;;25.33;12.25;;;;;;;-144.43;100.00;67396.00;5091820;28;20032;-58
2022/08/17 05:46:48;;;;;;;23.38;15.30;;;;;;;-144.43;100.00;67396.00;5090909;28;20020;-63
2022/08/17 05:50:22;;;;;;;19.70;9.00;;;;;;;-144.43;100.00;67396.00;5090632;28;20560;-59
2022/08/17 05:54:06;;;;;;;10.73;3.88;;;;;;;-144.43;100.00;67396.00;5092533;28;20047;-61
2022/08/17 05:57:58;;;;;;;11.02;3.67;;;;;;;-144.43;100.00;67396.00;5091712;28;20032;-62
2022/08/17 06:01:25;;;;;;;5.40;2.40;;;;;;;-144.43;100.00;67396.00;5091743;28;20020;-60
2022/08/17 06:04:59;;;;;;;6.20;2.00;;;;;;;-144.43;100.00;67396.00;5090456;28;20085;-60
2022/08/17 06:08:53;;;;;;;9.48;2.50;;;;;;;-144.43;100.00;67396.00;5090853;28;20032;-61
2022/08/17 06:12:30;;;;;;;7.72;2.10;;;;;;;-144.43;100.00;67396.00;5077071;28;20059;-60
2022/08/17 06:16:19;;;;;;;8.50;2.30;;;;;;;-144.43;100.00;67396.00;5091357;28;20028;-61
2022/08/17 06:19:53;;;;;;;8.88;3.47;;;;;;;-144.43;100.00;67396.00;5091307;28;20047;-61
2022/08/17 06:23:37;;;;;;;7.18;1.98;;;;;;;-144.43;100.00;67396.00;5090013;28;20040;-62
2022/08/17 06:27:15;;;;;;;5.85;2.65;;;;;;;-144.43;100.00;67396.00;5090847;28;20059;-62
2022/08/17 06:30:49;;;;;;;6.00;2.03;;;;;;;-144.43;100.00;67396.00;5089765;28;20077;-61
2022/08/17 06:34:21;;;;;;;9.13;2.78;;;;;;;-144.43;100.00;67396.00;5089208;28;20028;-60
2022/08/17 06:38:22;;;;;;;6.85;2.22;;;;;;;-144.43;100.00;67396.00;5091293;28;20044;-60
2022/08/17 06:42:20;;;;;;;17.73;3.25;;;;;;;-144.43;100.00;67396.00;5090469;28;20090;-63
2022/08/17 06:46:10;;;;;;;8.35;2.80;;;;;;;-144.43;100.00;67396.00;5090787;28;20447;-62
2022/08/17 06:50:07;;;;;;;7.40;2.42;;;;;;;-144.43;100.00;67396.00;5088985;28;20028;-62
2022/08/17 06:53:46;;;;;;;9.90;2.95;;;;;;;-144.43;100.00;67396.00;5067432;28;20040;-60
2022/08/17 06:57:22;;;;;;;7.80;3.08;;;;;;;-144.43;100.00;67396.00;5090231;28;20034;-62
2022/08/17 07:00:57;;;;;;;11.27;3.13;;;;;;;-144.43;100.00;67396.00;5091073;28;20032;-62
2022/08/17 07:04:33;;;;;;;8.10;2.92;;;;;;;-144.43;100.00;67396.00;5090578;28;20032;-60
2022/08/17 07:08:11;;;;;;;12.75;3.30;;;;;;;-144.43;100.00;67396.00;5091098;28;20052;-60
2022/08/17 07:11:48;;;;;;;12.77;3.00;;;;;;;-144.43;100.00;67396.00;5089502;28;20478;-62
2022/08/17 07:15:32;;;;;;;12.15;3.72;;;;;;;-144.43;100.00;67396.00;5089030;28;20093;-60
2022/08/17 07:18:58;;;;;;;8.32;2.55;;;;;;;-144.43;100.00;67396.00;5089723;28;20070;-61
2022/08/17 07:22:41;;;;;;;;;;;;;;;-144.43;100.00;67396.00;5091500;28;20028;-60
2022/08/17 07:26:08;;;;;;;8.25;2.92;;;;;;;-144.43;100.00;67396.00;5092146;28;20354;-60
2022/08/17 07:29:39;;;;;;;7.93;2.67;;;;;;;-144.43;100.00;67396.00;5092867;28;20032;-60
2022/08/17 07:33:20;;;;;;;6.40;2.50;;;;;;;-144.43;100.00;67396.00;5093813;28;21497;-60
2022/08/17 07:36:45;;;;;;;7.57;3.63;;;;;;;-144.43;100.00;67396.00;5095012;28;20048;-62
2022/08/17 07:40:32;;;;;;;10.00;3.55;;;;;;;-144.43;100.00;67396.00;5094720;28;20040;-61
2022/08/17 07:44:02;;;;;;;7.32;3.45;;;;;;;-144.43;100.00;67396.00;5095208;28;20032;-59
2022/08/17 07:51:35;;;;;;;11.07;3.60;;;;;;;-144.43;100.00;67396.00;5095475;28;20036;-61
2022/08/17 07:55:26;;;;;;;11.32;4.30;;;;;;;-144.43;100.00;67396.00;5095288;28;20097;-60
2022/08/17 07:59:15;;;;;;;10.63;3.95;;;;;;;-144.43;100.00;67396.00;5079024;28;20028;-61
2022/08/17 08:02:46;;;;;;;9.63;2.40;;;;;;;-144.43;100.00;67396.00;5092234;28;20053;-61
2022/08/17 08:06:22;;;;;;;6.30;1.90;;;;;;;-144.43;100.00;67396.00;5090271;28;20032;-61
2022/08/17 08:10:01;;;;;;;9.77;2.40;;;;;;;-144.43;100.00;67396.00;5094310;28;20036;-62
2022/08/17 08:13:31;;;;;;;9.57;2.25;;;;;;;-144.43;100.00;67396.00;5092982;28;20036;-60
2022/08/17 08:17:22;;;;;;;8.68;2.25;;;;;;;-144.43;100.00;67396.00;5093692;28;20024;-60
2022/08/17 08:21:14;;;;;;;6.47;2.03;;;;;;;-144.43;100.00;67396.00;5091872;28;20040;-61
2022/08/17 08:25:21;;;;;;;7.80;2.13;;;;;;;-144.43;100.00;67396.00;5070334;28;20506;-60
2022/08/17 08:29:09;;;;;;;6.82;2.20;;;;;;;-144.43;100.00;67396.00;5078374;28;20032;-62
2022/08/17 08:33:06;;;;;;;6.93;2.22;;;;;;;-144.43;100.00;67396.00;5092278;28;20036;-62
2022/08/17 08:36:59;;;;;;;9.90;2.42;;;;;;;-144.43;100.00;67396.00;5090034;28;20047;-60
2022/08/17 08:41:00;;;;;;;14.10;2.58;;;;;;;-144.43;100.00;67396.00;5091235;28;20036;-62
2022/08/17 08:44:35;;;;;;;9.52;2.13;;;;;;;-144.43;100.00;67396.00;5094309;28;20044;-59
2022/08/17 08:48:28;;;;;;;6.50;1.95;;;;;;;-144.43;100.00;67396.00;5094398;28;20435;-62
2022/08/17 08:51:59;;;;;;;9.70;2.15;;;;;;;-144.43;100.00;67396.00;5094482;28;20490;-59
2022/08/17 08:55:27;;;;;;;8.63;2.30;;;;;;;-144.43;100.00;67396.00;5094498;28;20040;-59
2022/08/17 08:59:08;;;;;;;5.60;1.80;;;;;;;-144.43;100.00;67396.00;5094253;28;20548;-60
2022/08/17 09:02:57;;;;;;;8.45;1.98;;;;;;;-144.43;100.00;67396.00;5077593;28;20094;-60
2022/08/17 09:06:35;;;;;;;4.80;1.70;;;;;;;-144.43;100.00;67396.00;5077422;28;20040;-60
2022/08/17 09:10:03;;;;;;;8.45;1.88;;;;;;;-144.43;100.00;67396.00;5079936;28;20040;-59
2022/08/17 09:13:41;;;;;;;4.70;1.83;;;;;;;-144.43;100.00;67396.00;5092628;28;20079;-60
2022/08/17 09:17:18;;;;;;;5.93;1.70;;;;;;;-144.43;100.00;67396.00;5087443;28;20082;-60
2022/08/17 09:21:03;;;;;;;6.45;1.85;;;;;;;-144.43;100.00;67396.00;5090516;28;20037;-60
2022/08/17 09:24:40;;;;;;;4.63;1.73;;;;;;;-144.43;100.00;67396.00;5058473;28;20044;-60
2022/08/17 09:28:41;;;;;;;7.75;2.03;;;;;;;-144.43;100.00;67396.00;5087747;28;20044;-60
2022/08/17 09:32:23;;;;;;;12.13;2.10;;;;;;;-144.43;100.00;67396.00;5082936;28;20067;-58
2022/08/17 09:35:53;;;;;;;6.03;2.17;;;;;;;-144.43;100.00;67396.00;5080494;28;20218;-59
2022/08/17 09:39:39;;;;;;;7.13;2.13;;;;;;;-144.43;100.00;67396.00;5098349;28;20035;-59
2022/08/17 09:43:09;;;;;;;6.63;2.38;;;;;;;-144.43;100.00;67396.00;5087519;28;20083;-59
2022/08/17 09:46:44;;;;;;;6.90;2.00;;;;;;;-144.43;100.00;67396.00;5092131;28;20039;-59
2022/08/17 09:50:29;;;;;;;4.15;1.80;;;;;;;-144.43;100.00;67396.00;5077520;28;20037;-59
2022/08/17 09:53:56;;;;;;;9.48;1.85;;;;;;;-144.43;100.00;67396.00;5098411;28;20490;-59
2022/08/17 09:57:43;;;;;;;7.68;2.10;;;;;;;-144.43;100.00;67396.00;5084869;28;20086;-59
2022/08/17 10:01:34;;;;;;;;;;;;;;;-144.43;100.00;67396.00;5094017;28;20064;-58
2022/08/17 10:05:12;;;;;;;8.30;2.90;;;;;;;-144.43;100.00;67396.00;5104328;28;19935;-58
2022/08/17 10:08:43;;;;;;;7.85;2.70;;;;;;;-144.43;100.00;67396.00;5090761;28;20048;-60
2022/08/17 10:12:28;;;;;;;6.38;2.42;;;;;;;-144.43;100.00;67396.00;5087969;28;20032;-59
2022/08/17 10:14:58;;;;;;;5.70;2.17;;;;;;;-144.43;100.00;67396.00;5084598;28;20082;-59
2022/08/17 10:17:35;;;;;;;6.80;2.35;;;;;;;-144.43;100.00;67396.00;5092661;28;20028;-60
2022/08/17 10:20:13;;;;;;;6.93;2.28;;;;;;;-144.43;100.00;67396.00;5078306;28;20032;-59
2022/08/17 10:29:53;;;;;;;7.28;2.22;;;;;;;-144.43;100.00;67396.00;5083318;28;20032;-60
2022/08/17 10:33:49;;;;;;;5.63;1.85;;;;;;;-144.43;100.00;67396.00;5092753;28;20505;-59
2022/08/17 10:37:19;;;;;;;5.32;2.05;;;;;;;-144.43;100.00;67396.00;5091528;28;20102;-60
2022/08/17 10:41:06;;;;;;;7.22;1.90;;;;;;;-144.43;100.00;67396.00;5075894;28;20085;-62
2022/08/17 10:44:59;;;;;;;4.38;2.20;;;;;;;-144.43;100.00;67396.00;5085567;28;20081;-61
2022/08/17 10:48:46;;;;;;;6.30;2.03;;;;;;;-144.43;100.00;67396.00;5092047;28;20044;-61
2022/08/17 10:52:22;;;;;;;;;;;;;;;-144.43;100.00;67396.00;5088317;28;20036;-59
2022/08/17 10:56:09;;;;;;;7.70;2.27;;;;;;;-144.43;100.00;67396.00;5084262;28;19942;-60
2022/08/17 10:59:45;;;;;;;6.25;2.20;;;;;;;-144.43;100.00;67396.00;5092341;28;20626;-59
2022/08/17 11:03:20;;;;;;;6.22;2.30;;;;;;;-144.43;100.00;67396.00;5092399;28;20379;-60
2022/08/17 11:07:16;;;;;;;4.40;1.90;;;;;;;-144.43;100.00;67396.00;5075611;28;20043;-62
2022/08/17 11:11:18;;;;;;;8.18;2.20;;;;;;;-144.43;100.00;67396.00;5075734;28;20024;-60
2022/08/17 11:14:56;;;;;;;4.35;1.98;;;;;;;-144.43;100.00;67396.00;5083142;28;20036;-60
2022/08/17 11:18:31;;;;;;;11.85;2.50;;;;;;;-144.43;100.00;67396.00;5092123;28;20044;-62
2022/08/17 11:22:25;;;;;;;9.70;2.20;;;;;;;-144.43;100.00;67396.00;5084954;28;20043;-62
2022/08/17 11:25:55;;;;;;;6.85;2.30;;;;;;;-144.43;100.00;67396.00;5084631;28;20036;-62
2022/08/17 11:29:26;;;;;;;8.85;2.67;;;;;;;-144.43;100.00;67396.00;5080438;28;20124;-63
2022/08/17 11:33:23;;;;;;;6.45;2.47;;;;;;;-144.43;100.00;67396.00;5088107;28;20078;-62
2022/08/17 11:36:53;;;;;;;10.23;2.35;;;;;;;-144.43;100.00;67396.00;5075783;28;20097;-62
2022/08/17 11:40:33;;;;;;;4.63;1.90;;;;;;;-144.43;100.00;67396.00;5092318;28;20033;-61
2022/08/17 11:44:09;;;;;;;6.30;2.30;;;;;;;-144.43;100.00;67396.00;5085298;28;20097;-61
2022/08/17 11:52:33;;;;;;;7.47;2.30;;;;;;;-144.43;100.00;67396.00;5045123;28;20067;-59
2022/08/17 11:55:58;;;;;;;11.82;2.35;;;;;;;-144.43;100.00;67396.00;5091574;28;20124;-59
2022/08/17 11:59:35;;;;;;;14.98;2.75;;;;;;;-144.43;100.00;67396.00;5091784;28;20032;-59
2022/08/17 12:03:25;;;;;;;8.15;2.72;;;;;;;-144.43;100.00;67396.00;5091554;28;20036;-59
2022/08/17 12:07:18;;;;;;;6.55;2.63;;;;;;;-144.43;100.00;67396.00;5075666;28;20111;-60
2022/08/17 12:11:08;;;;;;;10.75;2.78;;;;;;;-144.43;100.00;67396.00;5088406;28;20032;-61
2022/08/17 12:14:48;;;;;;;10.23;2.70;;;;;;;-144.43;100.00;67396.00;5085195;28;20529;-60
2022/08/17 12:18:20;;;;;;;9.45;2.88;;;;;;;-144.43;100.00;67396.00;5095363;28;20036;-59
2022/08/17 12:22:02;;;;;;;26.58;4.43;;;;;;;-144.43;100.00;67396.00;5095228;28;20187;-62
2022/08/17 12:25:39;;;;;;;12.07;3.03;;;;;;;-144.43;100.00;67396.00;5095276;28;20456;-60
2022/08/17 12:29:18;;;;;;;10.70;2.65;;;;;;;-144.43;100.00;67396.00;5095040;28;20097;-59
2022/08/17 12:32:48;;;;;;;12.93;2.88;;;;;;;-144.43;100.00;67396.00;5088434;28;20075;-60
2022/08/17 12:36:01;;;;;;;8.15;3.20;;;;;;;-144.43;100.00;67396.00;5093649;28;20494;-60
2022/08/17 12:39:29;;;;;;;9.40;3.13;;;;;;;-144.43;100.00;67396.00;5091315;28;20043;-60
2022/08/17 12:42:56;;;;;;;17.00;3.83;;;;;;;-144.43;100.00;67396.00;5093740;28;20036;-61
2022/08/17 12:46:23;;;;;;;9.90;4.40;;;;;;;-144.43;100.00;67396.00;5090998;28;20477;-60
2022/08/17 12:49:53;;;;;;;11.23;3.40;;;;;;;-144.43;100.00;67396.00;5094090;28;20043;-60
2022/08/17 12:53:22;;;;;;;16.48;3.97;;;;;;;-144.43;100.00;67396.00;5094296;28;20040;-59
2022/08/17 12:56:48;;;;;;;14.07;3.67;;;;;;;-144.43;100.00;67396.00;5091375;28;20498;-59
2022/08/17 13:00:20;;;;;;;15.60;3.85;;;;;;;-144.43;100.00;67396.00;5092976;28;20043;-60
2022/08/17 13:03:52;;;;;;;14.65;3.72;;;;;;;-144.43;100.00;67396.00;5092168;28;20060;-60
2022/08/17 13:07:43;;;;;;;14.93;3.60;;;;;;;-144.43;100.00;67396.00;5094003;28;20040;-60
2022/08/17 13:11:34;;;;;;;13.45;3.53;;;;;;;-144.43;100.00;67396.00;5091404;28;20028;-60
2022/08/17 13:15:08;;;;;;;13.18;3.80;;;;;;;-144.43;100.00;67396.00;5093445;28;20506;-59
2022/08/17 13:18:42;;;;;;;11.88;3.13;;;;;;;-144.43;100.00;67396.00;5092704;28;20110;-58
2022/08/17 13:22:21;;;;;;;17.60;3.70;;;;;;;-144.43;100.00;67396.00;5092940;28;20173;-62
2022/08/17 13:26:02;;;;;;;13.80;3.60;;;;;;;-144.43;100.00;67396.00;5085770;28;20064;-60
2022/08/17 13:29:37;;;;;;;9.85;2.97;;;;;;;-144.43;100.00;67396.00;5094043;28;20494;-62
2022/08/17 13:33:22;;;;;;;21.60;4.15;;;;;;;-144.43;100.00;67396.00;5093867;28;20044;-62
2022/08/17 13:36:47;;;;;;;13.93;3.60;;;;;;;-144.43;100.00;67396.00;5077107;28;20028;-62
2022/08/17 13:40:12;;;;;;;13.45;3.53;;;;;;;-144.43;100.00;67396.00;5096984;28;20035;-62
2022/08/17 13:43:43;;;;;;;10.55;3.47;;;;;;;-144.43;100.00;67396.00;5092054;28;20063;-59
2022/08/17 13:47:19;;;;;;;11.27;3.38;;;;;;;-144.43;100.00;67396.00;5090408;28;20035;-62
2022/08/17 13:50:51;;;;;;;13.18;3.50;;;;;;;-144.43;100.00;67396.00;5092658;28;20089;-60
2022/08/17 13:54:33;;;;;;;14.90;3.70;;;;;;;-144.43;100.00;67396.00;5091125;28;20043;-61
2022/08/17 13:57:58;;;;;;;11.60;3.28;;;;;;;-144.43;100.00;67396.00;5090710;28;20044;-60
2022/08/17 14:01:28;;;;;;;10.48;2.97;;;;;;;-144.43;100.00;67396.00;5093295;28;20032;-59
2022/08/17 14:04:54;;;;;;;13.60;3.63;;;;;;;-144.43;100.00;67396.00;5094750;28;20052;-63
2022/08/17 14:08:19;;;;;;;;;;;;;;;-144.43;100.00;67396.00;5093596;28;20075;-60
2022/08/17 14:11:48;;;;;;;11.80;3.67;;;;;;;-144.43;100.00;67396.00;5084467;28;20293;-63
2022/08/17 14:15:15;;;;;;;9.75;3.58;;;;;;;-144.43;100.00;67396.00;5092027;28;20131;-62
2022/08/17 14:18:40;;;;;;;14.85;4.20;;;;;;;-144.43;100.00;67396.00;5091335;28;20046;-60
2022/08/17 14:22:10;;;;;;;324.77;16.03;;;;;;;-144.43;100.00;67396.00;5092024;28;20062;-60
2022/08/17 14:25:37;;;;;;;21.17;4.28;;;;;;;-144.43;100.00;67396.00;5091778;28;20032;-61
2022/08/17 14:29:02;;;;;;;14.65;3.75;;;;;;;-144.43;100.00;67396.00;5076708;28;20703;-60
2022/08/17 14:32:29;;;;;;;11.32;3.50;;;;;;;-144.43;100.00;67396.00;5084594;28;20036;-60
2022/08/17 14:35:56;;;;;;;17.00;3.80;;;;;;;-144.43;100.00;67396.00;5084110;28;20055;-60
2022/08/17 14:39:21;;;;;;;16.30;5.05;;;;;;;-144.43;100.00;67396.00;5080626;28;20550;-60
2022/08/17 14:42:47;;;;;;;16.13;3.80;;;;;;;-144.43;100.00;67396.00;5074345;28;20064;-59
2022/08/17 14:46:12;;;;;;;11.82;3.42;;;;;;;-144.43;100.00;67396.00;5085689;28;20131;-60
2022/08/17 14:49:37;;;;;;;15.50;4.10;;;;;;;-144.43;100.00;67396.00;5082208;28;20420;-61
2022/08/17 14:53:05;;;;;;;14.17;3.97;;;;;;;-144.43;100.00;67396.00;5079633;28;20287;-60
2022/08/17 14:56:30;;;;;;;11.07;3.30;;;;;;;-144.43;100.00;67396.00;5087206;28;20180;-58
2022/08/17 14:59:55;;;;;;;10.75;4.10;;;;;;;-144.43;100.00;67396.00;5088836;28;20051;-59
2022/08/17 15:03:22;;;;;;;12.20;3.30;;;;;;;-144.43;100.00;67396.00;5079600;28;20127;-60
2022/08/17 15:06:47;;;;;;;11.40;4.10;;;;;;;-144.43;100.00;67396.00;5090516;28;20040;-62
2022/08/17 15:10:14;;;;;;;11.67;3.33;;;;;;;-144.43;100.00;67396.00;5076287;28;20115;-60
2022/08/17 15:13:40;;;;;;;11.85;3.08;;;;;;;-144.43;100.00;67396.00;5091874;28;20706;-61
2022/08/17 15:17:05;;;;;;;14.27;3.25;;;;;;;-144.43;100.00;67396.00;5085550;28;20059;-60
2022/08/17 15:20:30;;;;;;;11.67;3.17;;;;;;;-144.43;100.00;67396.00;5088737;28;20037;-59
2022/08/17 15:23:56;;;;;;;15.20;3.23;;;;;;;-144.43;100.00;67396.00;5085206;28;20032;-59
2022/08/17 15:27:22;;;;;;;;;;;;;;;-144.43;100.00;67396.00;5100200;28;20043;-59
2022/08/17 15:30:49;;;;;;;9.73;3.25;;;;;;;-144.43;100.00;67396.00;5090589;28;19923;-60
2022/08/17 15:34:24;;;;;;;12.75;3.20;;;;;;;-144.43;100.00;67396.00;5076042;28;20037;-61
2022/08/17 15:37:49;;;;;;;15.53;3.50;;;;;;;-144.43;100.00;67396.00;5084102;28;20076;-59
2022/08/17 15:41:17;;;;;;;11.70;3.13;;;;;;;-144.43;100.00;67396.00;5084329;28;20352;-59
2022/08/17 15:44:46;;;;;;;9.20;2.83;;;;;;;-144.43;100.00;67396.00;5092130;28;20074;-59
2022/08/17 15:48:17;;;;;;;9.55;3.08;;;;;;;-144.43;100.00;67396.00;5094932;28;20450;-59
2022/08/17 15:51:42;;;;;;;8.40;2.92;;;;;;;-144.43;100.00;67396.00;5095711;28;20459;-60
2022/08/17 15:55:10;;;;;;;8.02;3.10;;;;;;;-144.43;100.00;67396.00;5095880;28;20074;-58
2022/08/17 15:58:36;;;;;;;10.80;3.10;;;;;;;-144.43;100.00;67396.00;5078781;28;20044;-60
2022/08/17 16:02:10;;;;;;;9.40;2.50;;;;;;;-144.43;100.00;67396.00;5081136;28;20066;-60
2022/08/17 16:05:36;;;;;;;12.45;3.00;;;;;;;-144.43;100.00;67396.00;5095465;28;20036;-60
2022/08/17 16:09:01;;;;;;;9.15;3.10;;;;;;;-144.43;100.00;67396.00;5095152;28;20043;-57
2022/08/17 16:12:26;;;;;;;14.10;3.20;;;;;;;-144.43;100.00;67396.00;5078519;28;20111;-60
2022/08/17 16:15:56;;;;;;;7.97;2.60;;;;;;;-144.43;100.00;67396.00;5087424;28;20090;-59
2022/08/17 16:19:26;;;;;;;5.82;2.50;;;;;;;-144.43;100.00;67396.00;5086577;28;20064;-60
2022/08/17 16:22:51;;;;;;;9.95;2.88;;;;;;;-144.43;100.00;67396.00;5095123;28;20123;-60
2022/08/17 16:26:18;;;;;;;12.48;2.58;;;;;;;-144.43;100.00;67396.00;5078856;28;20032;-61
2022/08/17 16:29:43;;;;;;;8.57;2.83;;;;;;;-144.43;100.00;67396.00;5094591;28;20044;-60
2022/08/17 16:33:11;;;;;;;10.43;2.30;;;;;;;-144.43;100.00;67396.00;5094839;28;20039;-61
2022/08/17 16:36:36;;;;;;;9.98;2.42;;;;;;;-144.43;100.00;67396.00;5078152;28;20086;-60